createdAt,value
2019-03-02T00:01:40.674Z,15.73
2019-03-02T00:04:11.013Z,14.60
2019-03-02T00:06:40.215Z,15.10
2019-03-02T00:09:09.401Z,15.13
2019-03-02T00:11:38.572Z,15.23
2019-03-02T00:14:08.016Z,15.10
2019-03-02T00:16:39.757Z,15.13
2019-03-02T00:19:08.139Z,15.83
2019-03-02T00:21:37.329Z,15.77
2019-03-02T00:24:06.518Z,14.80
2019-03-02T00:26:35.677Z,15.53
2019-03-02T00:29:07.755Z,15.40
2019-03-02T00:31:35.790Z,16.10
2019-03-02T00:34:05.277Z,15.83
2019-03-02T00:36:34.515Z,16.70
2019-03-02T00:39:04.416Z,15.60
2019-03-02T00:41:33.559Z,15.93
2019-03-02T00:44:03.759Z,16.13
2019-03-02T00:46:33.639Z,15.27
2019-03-02T00:49:02.851Z,15.60
2019-03-02T00:51:32.047Z,15.60
2019-03-02T00:54:01.245Z,15.43
2019-03-02T00:56:30.426Z,16.20
2019-03-02T00:59:00.575Z,15.53
2019-03-02T01:01:30.505Z,14.60
2019-03-02T01:03:59.722Z,14.60
2019-03-02T01:06:28.841Z,15.07
2019-03-02T01:08:58.199Z,12.70
2019-03-02T01:11:29.453Z,14.17
2019-03-02T01:13:58.223Z,14.33
2019-03-02T01:16:27.410Z,13.40
2019-03-02T01:18:56.594Z,14.30
2019-03-02T01:21:25.784Z,14.53
2019-03-02T01:23:54.921Z,13.00
2019-03-02T01:26:24.779Z,12.27
2019-03-02T01:28:54.382Z,12.47
2019-03-02T01:31:23.601Z,12.37
2019-03-02T01:33:52.777Z,12.73
2019-03-02T01:36:22.029Z,13.03
2019-03-02T01:38:54.042Z,11.97
2019-03-02T01:41:22.301Z,12.47
2019-03-02T01:43:51.851Z,13.40
2019-03-02T01:46:21.031Z,12.10
2019-03-02T01:48:52.311Z,13.50
2019-03-02T01:51:23.871Z,13.50
2019-03-02T01:53:56.855Z,11.93
2019-03-02T01:56:27.124Z,12.70
2019-03-02T01:59:00.677Z,13.30
2019-03-02T02:01:30.565Z,12.53
2019-03-02T02:04:00.351Z,12.23
2019-03-02T02:06:30.330Z,13.53
2019-03-02T02:09:01.777Z,13.27
2019-03-02T02:11:31.099Z,12.50
2019-03-02T02:14:00.249Z,12.53
2019-03-02T02:16:29.421Z,12.60
2019-03-02T02:18:59.337Z,13.03
2019-03-02T02:21:29.005Z,13.03
2019-03-02T02:23:58.198Z,12.23
2019-03-02T02:26:27.633Z,12.70
2019-03-02T02:28:56.824Z,13.13
2019-03-02T02:31:25.988Z,12.23
2019-03-02T02:33:55.116Z,12.23
2019-03-02T02:36:24.397Z,12.07
2019-03-02T02:38:54.559Z,11.87
2019-03-02T02:41:25.058Z,11.27
2019-03-02T02:43:59.012Z,12.07
2019-03-02T02:46:27.502Z,12.93
2019-03-02T02:48:56.158Z,12.30
2019-03-02T02:51:25.747Z,11.73
2019-03-02T02:53:55.337Z,12.00
2019-03-02T02:56:24.558Z,12.00
2019-03-02T02:58:56.301Z,11.77
2019-03-02T03:01:32.997Z,11.97
2019-03-02T03:03:59.544Z,10.60
2019-03-02T03:06:28.510Z,10.73
2019-03-02T03:08:57.662Z,11.87
2019-03-02T03:11:26.844Z,11.73
2019-03-02T03:13:56.025Z,10.73
2019-03-02T03:16:25.230Z,12.13
2019-03-02T03:18:54.655Z,10.67
2019-03-02T03:21:27.775Z,10.53
2019-03-02T03:24:03.015Z,10.87
2019-03-02T03:26:25.659Z,11.70
2019-03-02T03:28:54.792Z,11.23
2019-03-02T03:31:25.840Z,11.50
2019-03-02T03:33:55.193Z,12.10
2019-03-02T03:36:24.334Z,11.50
2019-03-02T03:38:53.476Z,11.93
2019-03-02T03:41:22.662Z,11.53
2019-03-02T03:43:51.835Z,10.57
2019-03-02T03:46:22.271Z,11.17
2019-03-02T03:48:56.381Z,10.77
2019-03-02T03:51:26.119Z,10.80
2019-03-02T03:53:54.043Z,11.17
2019-03-02T03:56:23.217Z,10.73
2019-03-02T03:59:14.342Z,11.20
2019-03-02T04:01:42.385Z,11.13
2019-03-02T04:04:11.658Z,11.70
2019-03-02T04:06:41.148Z,11.40
2019-03-02T04:09:10.427Z,11.73
2019-03-02T04:11:42.163Z,12.07
2019-03-02T04:14:10.486Z,11.37
2019-03-02T04:16:39.658Z,11.90
2019-03-02T04:19:10.946Z,11.63
2019-03-02T04:21:45.502Z,11.87
2019-03-02T04:24:14.625Z,12.07
2019-03-02T04:26:43.720Z,13.00
2019-03-02T04:29:12.843Z,12.57
2019-03-02T04:31:43.982Z,13.00
2019-03-02T04:34:20.197Z,13.03
2019-03-02T04:36:47.303Z,12.67
2019-03-02T04:39:15.122Z,14.00
2019-03-02T04:41:44.281Z,13.80
2019-03-02T04:44:13.426Z,13.97
2019-03-02T04:46:42.585Z,14.13
2019-03-02T04:49:14.639Z,14.83
2019-03-02T04:51:42.613Z,14.83
2019-03-02T04:54:11.733Z,15.37
2019-03-02T04:56:40.960Z,14.87
2019-03-02T04:59:10.434Z,16.00
2019-03-02T05:01:43.669Z,14.90
2019-03-02T05:04:10.463Z,15.53
2019-03-02T05:06:39.619Z,16.47
2019-03-02T05:09:09.250Z,16.60
2019-03-02T05:11:39.279Z,17.73
2019-03-02T05:14:09.289Z,15.90
2019-03-02T05:16:38.428Z,15.87
2019-03-02T05:19:07.585Z,17.80
2019-03-02T05:21:39.924Z,17.80
2019-03-02T05:24:09.245Z,16.90
2019-03-02T05:26:38.754Z,17.37
2019-03-02T05:29:07.924Z,17.57
2019-03-02T05:31:37.550Z,19.13
2019-03-02T05:34:08.035Z,19.00
2019-03-02T05:36:37.186Z,19.13
2019-03-02T05:39:06.761Z,17.57
2019-03-02T05:41:39.300Z,19.93
2019-03-02T05:44:06.913Z,18.43
2019-03-02T05:46:36.044Z,19.70
2019-03-02T05:49:05.206Z,23.73
2019-03-02T05:51:34.259Z,20.27
2019-03-02T05:54:06.442Z,19.90
2019-03-02T05:56:34.281Z,20.43
2019-03-02T05:59:04.069Z,19.23
2019-03-02T06:01:33.207Z,20.97
2019-03-02T06:04:02.402Z,19.03
2019-03-02T06:06:31.996Z,19.30
2019-03-02T06:09:01.253Z,19.20
2019-03-02T06:11:30.704Z,20.17
2019-03-02T06:13:59.882Z,20.00
2019-03-02T06:16:29.129Z,19.47
2019-03-02T06:18:58.308Z,19.47
2019-03-02T06:21:27.447Z,19.70
2019-03-02T06:23:56.644Z,19.70
2019-03-02T06:26:25.810Z,20.27
2019-03-02T06:28:57.921Z,19.90
2019-03-02T06:31:25.872Z,20.40
2019-03-02T06:33:55.037Z,20.63
2019-03-02T06:36:24.162Z,22.60
2019-03-02T06:38:53.336Z,20.70
2019-03-02T06:41:23.104Z,20.30
2019-03-02T06:43:55.089Z,21.10
2019-03-02T06:46:23.436Z,20.70
2019-03-02T06:48:52.817Z,19.07
2019-03-02T06:51:21.943Z,31.60
2019-03-02T06:53:51.126Z,21.07
2019-03-02T06:56:20.270Z,20.77
2019-03-02T06:58:49.436Z,21.10
2019-03-02T07:01:20.796Z,20.07
2019-03-02T07:03:49.515Z,19.90
2019-03-02T07:06:18.702Z,20.43
2019-03-02T07:08:47.875Z,19.70
2019-03-02T07:11:17.041Z,21.37
2019-03-02T07:13:46.209Z,19.30
2019-03-02T07:16:16.595Z,34.60
2019-03-02T07:19:19.063Z,33.10
2019-03-02T07:21:49.043Z,23.37
2019-03-02T07:24:18.255Z,19.03
2019-03-02T07:26:47.417Z,18.17
2019-03-02T07:29:18.601Z,17.73
2019-03-02T07:31:48.095Z,18.00
2019-03-02T07:34:17.259Z,18.53
2019-03-02T07:36:46.402Z,18.33
2019-03-02T07:39:15.563Z,42.57
2019-03-02T07:41:44.910Z,23.70
2019-03-02T07:44:14.562Z,20.60
2019-03-02T07:46:47.576Z,19.43
2019-03-02T07:49:14.793Z,19.53
2019-03-02T07:51:44.191Z,19.37
2019-03-02T07:54:13.364Z,21.00
2019-03-02T07:56:42.801Z,19.87
2019-03-02T07:59:11.947Z,20.47
2019-03-02T08:01:41.030Z,21.57
2019-03-02T08:04:10.195Z,22.10
2019-03-02T08:06:39.320Z,21.83
2019-03-02T08:09:08.683Z,23.63
2019-03-02T08:11:38.629Z,21.43
2019-03-02T08:14:08.883Z,21.67
2019-03-02T08:16:39.102Z,22.77
2019-03-02T08:19:08.297Z,23.80
2019-03-02T08:21:37.466Z,24.03
2019-03-02T08:24:06.713Z,22.47
2019-03-02T08:26:35.861Z,23.63
2019-03-02T08:29:05.183Z,24.30
2019-03-02T08:31:34.319Z,23.33
2019-03-02T08:34:05.988Z,21.00
2019-03-02T08:36:34.539Z,22.60
2019-03-02T08:39:06.781Z,23.30
2019-03-02T08:41:36.637Z,22.50
2019-03-02T08:44:07.054Z,22.63
2019-03-02T08:46:36.116Z,20.90
2019-03-02T08:49:06.411Z,20.53
2019-03-02T08:51:36.310Z,22.00
2019-03-02T08:54:05.475Z,21.60
2019-03-02T08:56:34.628Z,22.33
2019-03-02T08:59:03.829Z,21.20
2019-03-02T09:01:32.993Z,21.57
2019-03-02T09:04:03.237Z,19.70
2019-03-02T09:06:34.778Z,20.50
2019-03-02T09:09:04.704Z,21.23
2019-03-02T09:11:33.906Z,19.70
2019-03-02T09:14:03.075Z,19.33
2019-03-02T09:16:32.135Z,20.40
2019-03-02T09:19:01.413Z,21.13
2019-03-02T09:21:30.538Z,20.47
2019-03-02T09:23:59.688Z,19.97
2019-03-02T09:26:28.851Z,20.87
2019-03-02T09:28:58.369Z,19.37
2019-03-02T09:31:27.534Z,19.77
2019-03-02T09:33:56.774Z,20.10
2019-03-02T09:36:27.774Z,19.23
2019-03-02T09:38:57.473Z,19.10
2019-03-02T09:41:26.708Z,19.40
2019-03-02T09:44:00.995Z,19.00
2019-03-02T09:46:28.255Z,20.57
2019-03-02T09:49:00.689Z,20.60
2019-03-02T09:51:28.464Z,21.07
2019-03-02T09:53:57.603Z,20.97
2019-03-02T09:56:26.733Z,21.77
2019-03-02T09:58:57.886Z,21.63
2019-03-02T10:01:26.788Z,20.93
2019-03-02T10:03:58.782Z,22.13
2019-03-02T10:06:27.560Z,20.80
2019-03-02T10:08:56.760Z,22.03
2019-03-02T10:11:25.995Z,21.53
2019-03-02T10:13:55.193Z,20.63
2019-03-02T10:16:24.332Z,22.73
2019-03-02T10:18:53.527Z,22.77
2019-03-02T10:21:22.677Z,24.57
2019-03-02T10:23:51.871Z,22.00
2019-03-02T10:26:20.995Z,22.47
2019-03-02T10:28:50.396Z,21.47
2019-03-02T10:31:19.576Z,21.27
2019-03-02T10:33:48.828Z,21.30
2019-03-02T10:36:17.976Z,20.77
2019-03-02T10:38:47.109Z,21.97
2019-03-02T10:41:16.717Z,20.87
2019-03-02T10:43:47.307Z,20.23
2019-03-02T10:46:16.526Z,20.40
2019-03-02T10:48:45.747Z,20.03
2019-03-02T10:51:14.987Z,20.47
2019-03-02T10:53:44.171Z,20.27
2019-03-02T10:56:13.367Z,19.60
2019-03-02T10:58:42.843Z,27.43
2019-03-02T11:01:12.004Z,22.10
2019-03-02T11:03:41.179Z,20.00
2019-03-02T11:06:18.742Z,19.83
2019-03-02T11:09:25.541Z,20.00
2019-03-02T11:12:17.501Z,18.97
2019-03-02T11:15:07.633Z,19.77
2019-03-02T11:17:58.813Z,18.37
2019-03-02T11:20:42.237Z,19.33
2019-03-02T11:23:29.404Z,18.30
2019-03-02T11:26:23.519Z,18.40
2019-03-02T11:29:23.942Z,17.37
2019-03-02T11:32:11.261Z,16.80
2019-03-02T11:35:06.926Z,16.53
2019-03-02T11:38:01.462Z,15.70
2019-03-02T11:40:43.499Z,19.07
2019-03-02T11:43:36.790Z,36.33
2019-03-02T11:46:25.102Z,15.53
2019-03-02T11:49:12.177Z,21.40
2019-03-02T11:51:50.557Z,17.50
2019-03-02T11:54:43.662Z,21.63
2019-03-02T11:57:24.955Z,16.43
2019-03-02T12:00:21.405Z,17.63
2019-03-02T12:03:12.818Z,16.13
2019-03-02T12:06:07.205Z,15.23
2019-03-02T12:09:13.575Z,15.83
2019-03-02T12:11:55.908Z,15.13
2019-03-02T12:14:37.648Z,15.27
2019-03-02T12:17:23.421Z,15.70
2019-03-02T12:20:09.030Z,16.37
2019-03-02T12:22:49.410Z,22.60
2019-03-02T12:25:36.608Z,15.90
2019-03-02T12:28:24.074Z,14.40
2019-03-02T12:31:12.774Z,14.27
2019-03-02T12:34:04.127Z,15.47
2019-03-02T12:36:53.265Z,19.23
2019-03-02T12:39:30.417Z,15.00
2019-03-02T12:42:17.378Z,15.03
2019-03-02T12:45:20.907Z,14.10
2019-03-02T12:48:24.006Z,14.93
2019-03-02T12:51:05.937Z,13.87
2019-03-02T12:53:53.009Z,18.73
2019-03-02T12:56:46.097Z,15.20
2019-03-02T12:59:22.014Z,20.97
2019-03-02T13:01:57.499Z,17.77
2019-03-02T13:04:45.353Z,26.33
2019-03-02T13:07:27.210Z,13.93
2019-03-02T13:10:16.149Z,16.60
2019-03-02T13:13:00.883Z,14.37
2019-03-02T13:15:42.236Z,46.50
2019-03-02T13:18:39.329Z,14.50
2019-03-02T13:21:18.796Z,26.40
2019-03-02T13:24:04.800Z,19.57
2019-03-02T13:26:53.863Z,17.27
2019-03-02T13:29:29.104Z,25.17
2019-03-02T13:32:21.240Z,16.10
2019-03-02T13:35:12.293Z,15.37
2019-03-02T13:37:53.117Z,13.33
2019-03-02T13:40:30.136Z,16.17
2019-03-02T13:43:18.043Z,14.30
2019-03-02T13:46:06.031Z,14.50
2019-03-02T13:48:47.243Z,14.53
2019-03-02T13:51:26.034Z,15.53
2019-03-02T13:54:10.808Z,12.80
2019-03-02T13:57:00.964Z,13.53
2019-03-02T13:59:47.299Z,14.50
2019-03-02T14:02:35.181Z,13.37
2019-03-02T14:05:17.862Z,14.07
2019-03-02T14:07:59.031Z,14.73
2019-03-02T14:10:38.724Z,15.30
2019-03-02T14:13:42.088Z,13.90
2019-03-02T14:16:32.188Z,12.93
2019-03-02T14:19:19.126Z,13.63
2019-03-02T14:22:21.453Z,12.23
2019-03-02T14:25:25.113Z,13.47
2019-03-02T14:28:16.063Z,15.23
2019-03-02T14:31:07.069Z,12.70
2019-03-02T14:33:48.149Z,12.03
2019-03-02T14:36:34.746Z,14.03
2019-03-02T14:39:23.334Z,13.47
2019-03-02T14:42:04.078Z,14.63
2019-03-02T14:44:54.005Z,13.47
2019-03-02T14:47:41.331Z,12.70
2019-03-02T14:50:26.891Z,13.13
2019-03-02T14:53:10.013Z,14.30
2019-03-02T14:55:47.813Z,13.87
2019-03-02T14:58:51.184Z,14.43
2019-03-02T15:01:30.445Z,16.00
2019-03-02T15:04:24.623Z,18.23
2019-03-02T15:07:18.379Z,14.33
2019-03-02T15:10:09.803Z,14.00
2019-03-02T15:13:00.047Z,15.67
2019-03-02T15:15:39.550Z,13.70
2019-03-02T15:18:40.059Z,28.40
2019-03-02T15:21:24.554Z,19.67
2019-03-02T15:24:00.916Z,34.57
2019-03-02T15:26:35.415Z,15.77
2019-03-02T15:29:24.030Z,21.53
2019-03-02T15:32:07.748Z,18.30
2019-03-02T15:34:49.939Z,16.40
2019-03-02T15:37:48.219Z,13.43
2019-03-02T15:40:39.440Z,16.37
2019-03-02T15:43:21.686Z,13.63
2019-03-02T15:46:16.329Z,14.27
2019-03-02T15:49:13.491Z,14.13
2019-03-02T15:51:55.216Z,14.97
2019-03-02T15:54:42.982Z,24.17
2019-03-02T15:57:39.956Z,14.97
2019-03-02T16:00:29.493Z,14.27
2019-03-02T16:03:09.903Z,15.40
2019-03-02T16:05:56.906Z,14.07
2019-03-02T16:08:43.065Z,16.53
2019-03-02T16:11:32.340Z,17.33
2019-03-02T16:14:18.762Z,14.53
2019-03-02T16:17:09.684Z,22.10
2019-03-02T16:20:07.627Z,19.40
2019-03-02T16:22:54.698Z,16.37
2019-03-02T16:25:48.057Z,16.33
2019-03-02T16:28:50.749Z,13.97
2019-03-02T16:31:57.058Z,14.90
2019-03-02T16:34:47.480Z,15.10
2019-03-02T16:37:37.286Z,15.63
2019-03-02T16:40:25.506Z,15.70
2019-03-02T16:43:16.465Z,41.13
2019-03-02T16:45:58.590Z,16.43
2019-03-02T16:48:35.631Z,17.20
2019-03-02T16:51:12.564Z,16.57
2019-03-02T16:53:57.271Z,18.27
2019-03-02T16:56:45.270Z,17.67
2019-03-02T16:59:32.204Z,16.13
2019-03-02T17:02:08.028Z,16.27
2019-03-02T17:05:02.323Z,16.53
2019-03-02T17:08:08.714Z,15.73
2019-03-02T17:10:59.672Z,15.60
2019-03-02T17:13:40.266Z,15.23
2019-03-02T17:16:16.036Z,16.17
2019-03-02T17:19:10.490Z,16.30
2019-03-02T17:21:48.410Z,22.47
2019-03-02T17:24:42.345Z,15.33
2019-03-02T17:27:21.227Z,15.93
2019-03-02T17:30:04.958Z,17.07
2019-03-02T17:32:44.468Z,17.97
2019-03-02T17:35:41.999Z,15.07
2019-03-02T17:38:27.136Z,14.53
2019-03-02T17:41:14.916Z,13.73
2019-03-02T17:46:50.631Z,15.28
2019-03-02T17:49:36.451Z,14.70
2019-03-02T17:52:15.389Z,16.97
2019-03-02T17:54:54.513Z,16.70
2019-03-02T17:57:34.553Z,16.60
2019-03-02T18:00:21.311Z,16.57
2019-03-02T18:02:59.782Z,17.40
2019-03-02T18:06:06.578Z,17.90
2019-03-02T18:08:55.432Z,18.90
2019-03-02T18:11:39.697Z,19.27
2019-03-02T18:14:43.357Z,21.27
2019-03-02T18:17:34.070Z,22.57
2019-03-02T18:20:03.189Z,21.70
2019-03-02T18:22:32.461Z,21.77
2019-03-02T18:25:01.552Z,21.40
2019-03-02T18:27:33.230Z,19.97
2019-03-02T18:30:02.208Z,24.03
2019-03-02T18:32:34.178Z,24.67
2019-03-02T18:35:03.244Z,27.67
2019-03-02T18:37:32.702Z,23.90
2019-03-02T18:40:03.932Z,24.97
2019-03-02T18:42:33.269Z,29.97
2019-03-02T18:45:04.317Z,34.57
2019-03-02T18:47:33.240Z,35.47
2019-03-02T18:50:11.676Z,34.13
2019-03-02T18:53:14.825Z,38.97
2019-03-02T18:55:43.927Z,33.03
2019-03-02T18:58:12.987Z,34.30
2019-03-02T19:00:45.941Z,31.43
2019-03-02T19:03:15.035Z,32.23
2019-03-02T19:05:46.139Z,29.43
2019-03-02T19:08:16.237Z,27.17
2019-03-02T19:10:45.633Z,24.80
2019-03-02T19:13:14.721Z,23.40
2019-03-02T19:15:53.281Z,24.67
2019-03-02T19:18:14.696Z,24.97
2019-03-02T19:20:44.095Z,23.73
2019-03-02T19:23:13.110Z,22.37
2019-03-02T19:25:42.590Z,20.87
2019-03-02T19:28:11.682Z,21.30
2019-03-02T19:30:41.187Z,21.60
2019-03-02T19:33:13.986Z,20.00
2019-03-02T19:35:44.599Z,20.73
2019-03-02T19:38:13.741Z,20.63
2019-03-02T19:41:00.943Z,20.17
2019-03-02T19:43:43.723Z,20.90
2019-03-02T19:46:16.905Z,19.27
2019-03-02T19:48:47.809Z,21.07
2019-03-02T19:51:18.697Z,23.97
2019-03-02T19:53:52.398Z,21.63
2019-03-02T19:56:21.901Z,22.87
2019-03-02T19:58:51.028Z,22.87
2019-03-02T20:01:20.143Z,22.97
2019-03-02T20:03:51.770Z,24.43
2019-03-02T20:06:22.131Z,23.70
2019-03-02T20:08:51.305Z,21.93
2019-03-02T20:11:20.507Z,22.37
2019-03-02T20:13:49.734Z,23.27
2019-03-02T20:16:19.002Z,22.47
2019-03-02T20:18:49.960Z,23.60
2019-03-02T20:21:19.253Z,23.37
2019-03-02T20:23:48.571Z,23.10
2019-03-02T20:26:17.671Z,23.27
2019-03-02T20:28:46.703Z,22.23
2019-03-02T20:31:16.065Z,21.80
2019-03-02T20:33:47.631Z,22.27
2019-03-02T20:36:16.846Z,22.47
2019-03-02T20:38:46.523Z,23.03
2019-03-02T20:41:15.858Z,22.20
2019-03-02T20:43:45.140Z,24.30
2019-03-02T20:46:14.860Z,23.83
2019-03-02T20:48:43.993Z,22.90
2019-03-02T20:51:14.595Z,22.53
2019-03-02T20:53:44.998Z,23.93
2019-03-02T20:56:14.210Z,25.63
2019-03-02T20:58:43.348Z,22.20
2019-03-02T21:01:12.550Z,23.13
2019-03-02T21:03:41.667Z,20.37
2019-03-02T21:06:10.917Z,20.93
2019-03-02T21:08:39.934Z,19.90
2019-03-02T21:11:09.030Z,20.83
2019-03-02T21:13:38.083Z,20.73
2019-03-02T21:16:07.494Z,20.67
2019-03-02T21:18:36.616Z,20.47
2019-03-02T21:21:06.082Z,19.90
2019-03-02T21:23:35.257Z,20.07
2019-03-02T21:26:06.622Z,19.17
2019-03-02T21:28:35.666Z,18.90
2019-03-02T21:31:04.854Z,19.07
2019-03-02T21:33:34.094Z,19.03
2019-03-02T21:36:03.197Z,19.97
2019-03-02T21:38:32.350Z,18.63
2019-03-02T21:41:11.593Z,20.27
2019-03-02T21:43:40.688Z,18.80
2019-03-02T21:46:09.780Z,17.43
2019-03-02T21:48:39.015Z,24.10
2019-03-02T21:51:09.551Z,17.97
2019-03-02T21:53:39.031Z,19.57
2019-03-02T21:56:11.280Z,18.90
2019-03-02T21:58:47.797Z,18.97
2019-03-02T22:01:16.895Z,15.67
2019-03-02T22:03:47.174Z,16.50
2019-03-02T22:06:16.334Z,16.60
2019-03-02T22:08:45.368Z,15.73
2019-03-02T22:11:14.812Z,15.13
2019-03-02T22:13:43.939Z,15.87
2019-03-02T22:16:13.159Z,15.10
2019-03-02T22:18:42.283Z,14.47
2019-03-02T22:21:11.405Z,13.30
2019-03-02T22:23:43.346Z,16.33
2019-03-02T22:26:12.883Z,14.63
2019-03-02T22:28:42.023Z,14.27
2019-03-02T22:31:11.172Z,14.70
2019-03-02T22:33:40.207Z,13.87
2019-03-02T22:36:14.972Z,13.43
2019-03-02T22:38:45.398Z,12.30
2019-03-02T22:41:14.688Z,13.17
2019-03-02T22:43:49.244Z,12.27
2019-03-02T22:46:22.134Z,12.20
2019-03-02T22:48:51.207Z,12.60
2019-03-02T22:51:22.544Z,11.40
2019-03-02T22:53:51.347Z,11.40
2019-03-02T22:56:20.436Z,11.73
2019-03-02T22:58:48.631Z,12.47
2019-03-02T23:01:29.843Z,18.17
2019-03-02T23:03:58.988Z,14.10
2019-03-02T23:06:28.235Z,12.87
2019-03-02T23:08:57.820Z,11.80
2019-03-02T23:11:30.101Z,10.10
2019-03-02T23:13:59.164Z,9.87
2019-03-02T23:16:28.247Z,8.77
2019-03-02T23:18:57.257Z,9.27
2019-03-02T23:21:26.268Z,8.80
2019-03-02T23:23:55.262Z,8.03
2019-03-02T23:26:24.382Z,8.97
2019-03-02T23:28:53.466Z,8.60
2019-03-02T23:31:22.650Z,8.97
2019-03-02T23:33:51.773Z,8.77
2019-03-02T23:36:21.150Z,8.63
2019-03-02T23:38:50.483Z,8.53
2019-03-02T23:41:19.624Z,8.40
2019-03-02T23:43:48.718Z,8.57
2019-03-02T23:46:20.846Z,8.00
2019-03-02T23:48:49.920Z,8.43
2019-03-02T23:51:19.034Z,8.27
2019-03-02T23:53:51.020Z,8.00
2019-03-02T23:56:20.013Z,7.57
2019-03-02T23:58:49.153Z,7.53
